Red Bank, Pennsylvania
Current Conditions -  °F | °C
As of 6:53 PM on Friday 19 Dec 2014 (Local Time) from KSEG Reporting Station
Overcast Overcast  
Wind Chill: 28°   Ceiling: 3900
Heat Index: 34°   Visibility: 10mi
Dew Point: 21°   Wind: 7mph
Humidity: 59%   Direction: 320°NW
Pressure: 30.2"   Gusts: NA
Location:  40.9428°N, 77.0748°W
Report Text: KSEG 192353Z AUTO 32006KT 10SM OVC039 01/M06 A3020 RMK AO2 SLP229 T00111061 10044 20006 51019
Loading
Personal Weather Stations






























Interactive Weather Map New forecast layout! Learn more

10-Day Weather Forecast

Advertisements
Track Severe Weather on mobile